createdAt,value
2023-05-21T00:00:24.486Z,101345.60
2023-05-21T00:05:47.479Z,101342.00
2023-05-21T00:10:50.474Z,101334.60
2023-05-21T00:15:53.447Z,101330.80
2023-05-21T00:20:56.296Z,101331.40
2023-05-21T00:26:00.205Z,101339.00
2023-05-21T00:31:03.174Z,101348.60
2023-05-21T00:36:06.482Z,101353.60
2023-05-21T00:41:11.049Z,101355.00
2023-05-21T00:46:21.059Z,101352.20
2023-05-21T00:51:24.926Z,101354.20
2023-05-21T00:56:28.043Z,101351.60
2023-05-21T01:01:34.145Z,101353.80
2023-05-21T01:06:37.948Z,101346.20
2023-05-21T01:11:50.117Z,101343.00
2023-05-21T01:16:53.797Z,101342.00
2023-05-21T01:22:06.024Z,101332.00
2023-05-21T01:27:10.737Z,101327.60
2023-05-21T01:32:25.826Z,101323.60
2023-05-21T01:38:13.997Z,101326.00
2023-05-21T01:43:19.669Z,101318.80
2023-05-21T01:48:27.368Z,101323.60
2023-05-21T01:53:30.688Z,101325.60
2023-05-21T01:58:33.655Z,101325.20
2023-05-21T02:03:36.848Z,101327.80
2023-05-21T02:08:40.468Z,101323.40
2023-05-21T02:13:43.505Z,101317.80
2023-05-21T02:18:47.117Z,101316.40
2023-05-21T02:23:50.066Z,101319.20
2023-05-21T02:28:54.348Z,101319.00
2023-05-21T02:33:58.264Z,101318.60
2023-05-21T02:39:01.955Z,101319.60
2023-05-21T02:44:05.002Z,101322.40
2023-05-21T02:49:07.941Z,101321.60
2023-05-21T02:54:10.954Z,101316.60
2023-05-21T02:59:13.994Z,101313.00
2023-05-21T03:04:21.951Z,101310.20
2023-05-21T03:09:24.801Z,101315.60
2023-05-21T03:14:29.034Z,101314.20
2023-05-21T03:19:36.560Z,101315.00
2023-05-21T03:24:39.987Z,101318.60
2023-05-21T03:29:43.393Z,101313.00
2023-05-21T03:34:46.280Z,101316.00
2023-05-21T03:39:49.136Z,101303.60
2023-05-21T03:44:51.962Z,101297.20
2023-05-21T03:49:55.108Z,101288.60
2023-05-21T03:54:58.060Z,101285.80
2023-05-21T04:00:00.976Z,101286.60
2023-05-21T04:05:04.260Z,101285.00
2023-05-21T04:10:08.113Z,101291.20
2023-05-21T04:15:11.313Z,101287.80
2023-05-21T04:20:17.138Z,101290.00
2023-05-21T04:25:21.994Z,101294.80
2023-05-21T04:30:24.977Z,101290.00
2023-05-21T04:35:27.879Z,101287.60
2023-05-21T04:40:30.874Z,101292.80
2023-05-21T04:45:33.962Z,101285.80
2023-05-21T04:50:37.027Z,101276.20
2023-05-21T04:55:40.301Z,101276.40
2023-05-21T05:00:46.205Z,101277.00
2023-05-21T05:05:49.141Z,101285.00
2023-05-21T05:10:52.136Z,101284.80
2023-05-21T05:15:55.119Z,101289.40
2023-05-21T05:20:58.030Z,101294.00
2023-05-21T05:26:01.001Z,101291.60
2023-05-21T05:31:04.063Z,101291.60
2023-05-21T05:36:07.488Z,101291.40
2023-05-21T05:41:10.413Z,101291.80
2023-05-21T05:46:13.362Z,101290.00
2023-05-21T05:51:17.245Z,101294.20
2023-05-21T05:56:20.152Z,101291.00
2023-05-21T06:01:24.893Z,101289.40
2023-05-21T06:06:28.281Z,101289.00
2023-05-21T06:11:31.231Z,101286.60
2023-05-21T06:16:34.389Z,101288.20
2023-05-21T06:21:37.446Z,101288.80
2023-05-21T06:26:40.414Z,101284.80
2023-05-21T06:31:44.214Z,101280.80
2023-05-21T06:36:48.782Z,101280.20
2023-05-21T06:41:51.819Z,101275.40
2023-05-21T06:46:54.957Z,101277.80
2023-05-21T06:51:58.005Z,101279.80
2023-05-21T06:57:01.843Z,101274.40
2023-05-21T07:02:05.144Z,101273.00
2023-05-21T07:07:08.076Z,101276.20
2023-05-21T07:12:11.002Z,101267.80
2023-05-21T07:17:14.044Z,101269.00
2023-05-21T07:22:17.025Z,101272.00
2023-05-21T07:32:29.393Z,101274.40
2023-05-21T07:37:33.078Z,101273.40
2023-05-21T07:42:36.174Z,101276.40
2023-05-21T07:47:40.419Z,101275.80
2023-05-21T07:52:43.633Z,101274.40
2023-05-21T07:57:46.611Z,101276.80
2023-05-21T08:02:49.703Z,101278.60
2023-05-21T08:07:52.823Z,101273.80
2023-05-21T08:12:56.022Z,101268.40
2023-05-21T08:17:59.639Z,101266.80
2023-05-21T08:23:03.032Z,101258.40
2023-05-21T08:28:07.453Z,101257.20
2023-05-21T08:33:11.720Z,101249.20
2023-05-21T08:38:17.353Z,101242.20
2023-05-21T08:43:21.139Z,101237.80
2023-05-21T08:48:25.121Z,101239.80
2023-05-21T08:53:29.192Z,101245.80
2023-05-21T08:58:33.882Z,101241.40
2023-05-21T09:03:41.187Z,101227.40
2023-05-21T09:08:47.162Z,101234.60
2023-05-21T09:13:52.550Z,101238.80
2023-05-21T09:18:55.521Z,101233.80
2023-05-21T09:24:00.117Z,101225.00
2023-05-21T09:29:03.985Z,101224.00
2023-05-21T09:34:07.118Z,101220.80
2023-05-21T09:39:12.267Z,101220.40
2023-05-21T09:44:15.457Z,101219.80
2023-05-21T09:49:26.766Z,101220.00
2023-05-21T09:54:35.721Z,101215.40
2023-05-21T09:59:39.968Z,101208.60
2023-05-21T10:04:44.927Z,101203.20
2023-05-21T10:09:49.334Z,101198.60
2023-05-21T10:15:01.471Z,101191.40
2023-05-21T10:20:07.733Z,101183.80
2023-05-21T10:25:13.760Z,101192.20
2023-05-21T10:30:18.694Z,101193.20
2023-05-21T10:35:23.275Z,101188.20
2023-05-21T10:40:26.553Z,101185.40
2023-05-21T10:45:58.067Z,101176.80
2023-05-21T10:51:56.730Z,101171.60
2023-05-21T10:57:43.544Z,101177.00
2023-05-21T11:02:50.194Z,101163.20
2023-05-21T11:07:57.791Z,101161.60
2023-05-21T11:13:16.454Z,101159.60
2023-05-21T11:18:20.920Z,101153.60
2023-05-21T11:23:51.499Z,101149.40
2023-05-21T11:29:08.676Z,101151.80
2023-05-21T11:34:28.844Z,101150.40
2023-05-21T11:39:40.481Z,101138.20
2023-05-21T11:44:47.669Z,101138.60
2023-05-21T11:49:50.590Z,101139.60
2023-05-21T11:54:56.891Z,101135.00
2023-05-21T12:00:02.293Z,101130.60
2023-05-21T12:05:06.822Z,101131.40
2023-05-21T12:10:10.804Z,101130.20
2023-05-21T12:15:14.060Z,101131.20
2023-05-21T12:20:17.256Z,101130.20
2023-05-21T12:25:21.370Z,101122.20
2023-05-21T12:30:26.283Z,101120.80
2023-05-21T12:35:31.660Z,101119.40
2023-05-21T12:40:40.807Z,101118.00
2023-05-21T12:45:44.634Z,101118.60
2023-05-21T12:50:47.636Z,101114.80
2023-05-21T12:55:50.936Z,101108.00
2023-05-21T13:00:56.657Z,101103.40
2023-05-21T13:06:01.758Z,101101.60
2023-05-21T13:11:05.271Z,101096.80
2023-05-21T13:16:08.580Z,101097.20
2023-05-21T13:21:11.619Z,101089.60
2023-05-21T13:26:14.578Z,101089.60
2023-05-21T13:31:17.776Z,101083.40
2023-05-21T13:36:20.903Z,101076.80
2023-05-21T13:41:23.938Z,101071.00
2023-05-21T13:46:27.147Z,101069.20
2023-05-21T13:51:38.519Z,101071.20
2023-05-21T13:56:42.351Z,101063.20
2023-05-21T14:01:46.021Z,101054.80
2023-05-21T14:06:49.058Z,101045.00
2023-05-21T14:11:52.018Z,101044.80
2023-05-21T14:16:55.025Z,101046.00
2023-05-21T14:21:59.977Z,101042.20
2023-05-21T14:27:02.917Z,101042.20
2023-05-21T14:32:06.650Z,101041.40
2023-05-21T14:37:09.594Z,101044.60
2023-05-21T14:42:12.540Z,101036.60
2023-05-21T14:47:15.702Z,101038.60
2023-05-21T14:52:18.640Z,101031.20
2023-05-21T14:57:21.560Z,101030.80
2023-05-21T15:02:24.649Z,101025.60
2023-05-21T15:07:27.797Z,101028.60
2023-05-21T15:12:30.853Z,101017.40
2023-05-21T15:17:35.316Z,101020.80
2023-05-21T15:22:38.442Z,101018.00
2023-05-21T15:27:41.412Z,101016.60
2023-05-21T15:32:44.310Z,101018.40
2023-05-21T15:37:47.193Z,101011.80
2023-05-21T15:42:50.279Z,101012.00
2023-05-21T15:47:53.335Z,101009.80
2023-05-21T15:52:56.368Z,101005.20
2023-05-21T15:58:02.048Z,101007.60
2023-05-21T16:03:05.578Z,101004.60
2023-05-21T16:08:10.826Z,100999.20
2023-05-21T16:13:13.754Z,100996.40
2023-05-21T16:18:16.631Z,100983.40
2023-05-21T16:23:19.712Z,100986.00
2023-05-21T16:28:24.510Z,100982.80
2023-05-21T16:33:27.553Z,100984.80
2023-05-21T16:38:31.458Z,100983.20
2023-05-21T16:43:34.700Z,100981.60
2023-05-21T16:48:39.404Z,100981.80
2023-05-21T16:53:42.322Z,100988.00
2023-05-21T16:58:45.186Z,100984.60
2023-05-21T17:03:48.174Z,100989.40
2023-05-21T17:08:51.439Z,100990.00
2023-05-21T17:13:54.287Z,100991.40
2023-05-21T17:18:57.246Z,100994.60
2023-05-21T17:24:00.686Z,100994.00
2023-05-21T17:29:03.735Z,100995.40
2023-05-21T17:34:06.982Z,100988.00
2023-05-21T17:39:10.602Z,100989.40
2023-05-21T17:44:17.335Z,100990.40
2023-05-21T17:49:20.847Z,100986.00
2023-05-21T17:54:23.736Z,100985.60
2023-05-21T17:59:26.770Z,100984.20
2023-05-21T18:04:29.745Z,100982.80
2023-05-21T18:09:32.824Z,100986.20
2023-05-21T18:14:35.839Z,100986.20
2023-05-21T18:19:38.786Z,100991.80
2023-05-21T18:24:41.780Z,100994.40
2023-05-21T18:29:45.049Z,101001.80
2023-05-21T18:34:48.546Z,100998.00
2023-05-21T18:39:51.504Z,101006.40
2023-05-21T18:44:54.454Z,101012.20
2023-05-21T18:49:57.423Z,101015.20
2023-05-21T18:55:00.795Z,101016.40
2023-05-21T19:00:09.903Z,101016.40
2023-05-21T19:05:13.235Z,101014.20
2023-05-21T19:10:16.346Z,101014.80
2023-05-21T19:15:19.494Z,101014.20
2023-05-21T19:20:27.268Z,101017.20
2023-05-21T19:25:31.889Z,101022.00
2023-05-21T19:30:36.705Z,101016.20
2023-05-21T19:35:41.675Z,101021.60
2023-05-21T19:40:45.110Z,101024.40
2023-05-21T19:45:48.486Z,101016.80
2023-05-21T19:50:51.710Z,101016.80
2023-05-21T19:55:55.020Z,101006.80
2023-05-21T20:00:59.431Z,101000.80
2023-05-21T20:06:03.482Z,101007.40
2023-05-21T20:11:06.638Z,101000.60
2023-05-21T20:16:10.706Z,100999.80
2023-05-21T20:21:17.646Z,100995.00
2023-05-21T20:26:22.029Z,101000.00
2023-05-21T20:31:25.671Z,100999.60
2023-05-21T20:36:30.667Z,101001.00
2023-05-21T20:41:37.943Z,101009.20
2023-05-21T20:46:41.237Z,101018.20
2023-05-21T20:51:44.740Z,101023.00
2023-05-21T20:56:50.880Z,101023.40
2023-05-21T21:01:54.206Z,101024.80
2023-05-21T21:06:57.298Z,101022.20
2023-05-21T21:12:06.148Z,101029.00
2023-05-21T21:17:12.056Z,101020.80
2023-05-21T21:22:16.644Z,101020.80
2023-05-21T21:27:19.671Z,101022.00
2023-05-21T21:32:22.778Z,101021.80
2023-05-21T21:37:25.859Z,101019.60
2023-05-21T21:42:28.849Z,101019.60
2023-05-21T21:47:31.947Z,101020.20
2023-05-21T21:52:40.032Z,101020.60
2023-05-21T21:57:43.192Z,101027.80
2023-05-21T22:02:48.938Z,101028.00
2023-05-21T22:07:52.209Z,101028.20
2023-05-21T22:12:55.263Z,101025.00
2023-05-21T22:18:01.023Z,101023.60
2023-05-21T22:23:04.452Z,101021.60
2023-05-21T22:28:07.379Z,101021.20
2023-05-21T22:33:11.533Z,101012.40
2023-05-21T22:38:14.510Z,101013.60
2023-05-21T22:43:17.665Z,101016.20
2023-05-21T22:48:22.144Z,101014.40
2023-05-21T22:53:25.925Z,101009.40
2023-05-21T22:58:29.080Z,101002.00
2023-05-21T23:03:32.246Z,100999.00
2023-05-21T23:08:38.258Z,101008.00
2023-05-21T23:13:43.910Z,101001.80
2023-05-21T23:18:47.907Z,100998.60
2023-05-21T23:23:50.921Z,100994.60
2023-05-21T23:28:56.921Z,100990.20
2023-05-21T23:34:01.827Z,100994.80
2023-05-21T23:39:04.780Z,100993.00
2023-05-21T23:44:07.931Z,100994.20
2023-05-21T23:49:11.812Z,100995.20
2023-05-21T23:54:17.105Z,100993.80
2023-05-21T23:59:20.474Z,100993.20
